New Hope, Alabama
Current Conditions -  °F | °C
As of 7:28 AM on Monday 24 Nov 2014 (Local Time) from KHUA Reporting Station
Broken Clouds Broken Clouds  
Wind Chill: 63°   Ceiling: 3300
Heat Index: 63°   Visibility: 8mi
Dew Point: 55°   Wind: 12mph
Humidity: 77%   Direction: 220°SW
Pressure: 29.7"   Gusts: NA
Location:  34.54°N, 86.39°W
Report Text: KHUA 241328Z AUTO 22010KT 8SM SCT026 BKN033 BKN043 17/13 A2970 RMK AO2
Loading
Personal Weather Stations






























Interactive Weather Map New forecast layout! Learn more

10-Day Weather Forecast

Advertisements
Track Severe Weather on mobile